Time;durP1;ratioP1;P1;durP2;ratioP2;P2;SDS_P1;SDS_P2;PMS_P1;PMS_P2;Temp;Humidity;BMP_temperature;BMP_pressure;BME280_temperature;BME280_humidity;BME280_pressure;Samples;Min_cycle;Max_cycle;Signal;HPM_P1;HPM_P2
2022/06/21 00:01:55;;;;;;;12.25;3.40;;;9.60;99.90;;;;;;7339505;32;20132;-60
2022/06/21 00:05:58;;;;;;;7.28;4.25;;;9.60;99.90;;;;;;7334754;32;20355;-60
2022/06/21 00:10:00;;;;;;;5.10;3.47;;;9.60;99.90;;;;;;7338286;32;20112;-60
2022/06/21 00:14:02;;;;;;;7.60;3.70;;;9.60;99.90;;;;;;7339423;32;20525;-59
2022/06/21 00:18:05;;;;;;;6.82;3.25;;;9.50;99.90;;;;;;7332154;32;20104;-59
2022/06/21 00:22:19;;;;;;;4.82;3.47;;;9.50;99.90;;;;;;7336086;32;20206;-60
2022/06/21 00:26:24;;;;;;;5.53;3.42;;;9.50;99.90;;;;;;7336336;32;20107;-60
2022/06/21 00:30:27;;;;;;;6.50;4.22;;;9.50;99.90;;;;;;7337967;32;20197;-59
2022/06/21 00:34:29;;;;;;;4.45;3.37;;;9.40;99.90;;;;;;7335723;32;20130;-60
2022/06/21 00:38:34;;;;;;;4.65;3.70;;;9.30;99.90;;;;;;7342120;32;20121;-60
2022/06/21 00:42:38;;;;;;;7.05;3.25;;;9.10;99.90;;;;;;7340462;32;20179;-60
2022/06/21 00:46:45;;;;;;;5.22;3.22;;;9.20;99.90;;;;;;7344702;32;20099;-60
2022/06/21 00:51:06;;;;;;;5.95;3.50;;;9.20;99.90;;;;;;7340965;32;20096;-60
2022/06/21 00:55:23;;;;;;;7.68;3.10;;;9.20;99.90;;;;;;7341543;32;20348;-61
2022/06/21 00:59:31;;;;;;;5.60;3.05;;;9.20;99.90;;;;;;7339587;32;20103;-60
2022/06/21 01:03:36;;;;;;;6.18;3.40;;;9.30;99.90;;;;;;7341139;32;20526;-60
2022/06/21 01:07:38;;;;;;;5.90;3.40;;;9.20;99.90;;;;;;7335922;32;20930;-60
2022/06/21 01:11:44;;;;;;;5.03;3.03;;;9.20;99.90;;;;;;7335260;32;20107;-60
2022/06/21 01:15:49;;;;;;;5.20;2.70;;;9.10;99.90;;;;;;7340305;32;20217;-60
2022/06/21 01:20:10;;;;;;;6.50;3.58;;;9.10;99.90;;;;;;7340668;32;20104;-59
2022/06/21 01:24:21;;;;;;;3.75;3.00;;;9.00;99.90;;;;;;7338637;32;20468;-59
2022/06/21 01:28:22;;;;;;;4.82;3.22;;;9.00;99.90;;;;;;7339719;32;20238;-60
2022/06/21 01:32:24;;;;;;;12.77;3.75;;;9.00;99.90;;;;;;7342138;32;20374;-60
2022/06/21 01:36:32;;;;;;;5.93;3.30;;;8.80;99.90;;;;;;7337061;32;20119;-60
2022/06/21 01:40:40;;;;;;;5.85;2.92;;;8.80;99.90;;;;;;7337874;32;20497;-60
2022/06/21 01:44:48;;;;;;;6.15;4.07;;;8.90;99.90;;;;;;7337346;32;20108;-60
2022/06/21 01:48:53;;;;;;;9.10;3.70;;;8.80;99.90;;;;;;7343023;32;20668;-60
2022/06/21 01:52:56;;;;;;;5.25;3.15;;;8.80;99.90;;;;;;7341506;32;20190;-60
2022/06/21 01:56:57;;;;;;;5.03;3.10;;;8.70;99.90;;;;;;7338013;32;20126;-58
2022/06/21 02:01:24;;;;;;;4.82;3.50;;;8.70;99.90;;;;;;7335025;32;20122;-60
2022/06/21 02:05:33;;;;;;;3.95;3.17;;;8.70;99.90;;;;;;7341497;32;20099;-59
2022/06/21 02:09:45;;;;;;;9.70;3.58;;;8.70;99.90;;;;;;7330489;32;20589;-60
2022/06/21 02:14:28;;;;;;;5.05;3.35;;;8.70;99.90;;;;;;7340659;32;20198;-60
2022/06/21 02:18:16;;;;;;;6.65;3.45;;;8.70;99.90;;;;;;7339038;32;21939;-60
2022/06/21 02:22:22;;;;;;;4.60;2.83;;;8.70;99.90;;;;;;7340678;32;20102;-59
2022/06/21 02:26:28;;;;;;;7.15;3.42;;;8.60;99.90;;;;;;7340161;32;20159;-59
2022/06/21 02:30:31;;;;;;;4.37;3.65;;;8.50;99.90;;;;;;7342206;32;20129;-59
2022/06/21 02:34:39;;;;;;;6.90;3.40;;;8.40;99.90;;;;;;7340726;32;20223;-59
2022/06/21 02:38:49;;;;;;;5.80;3.40;;;8.50;99.90;;;;;;7340594;32;20511;-60
2022/06/21 02:42:53;;;;;;;6.47;3.58;;;8.40;99.90;;;;;;7337217;32;20133;-60
2022/06/21 02:46:59;;;;;;;8.55;3.50;;;8.40;99.90;;;;;;7333039;32;20190;-60
2022/06/21 02:51:06;;;;;;;5.65;3.37;;;8.50;99.90;;;;;;7338925;32;20125;-59
2022/06/21 02:55:20;;;;;;;4.55;2.83;;;8.50;99.90;;;;;;7339543;32;20615;-60
2022/06/21 02:59:22;;;;;;;5.62;3.22;;;8.60;99.90;;;;;;7340809;32;20170;-60
2022/06/21 03:03:27;;;;;;;4.90;3.50;;;8.50;99.90;;;;;;7341019;32;20622;-60
2022/06/21 03:07:36;;;;;;;8.18;4.85;;;8.50;99.90;;;;;;7336189;32;20103;-60
2022/06/21 03:11:43;;;;;;;10.82;5.12;;;8.70;99.90;;;;;;7342126;32;20545;-60
2022/06/21 03:15:49;;;;;;;10.60;4.45;;;9.10;99.90;;;;;;7339310;32;20178;-61
2022/06/21 03:19:52;;;;;;;7.62;4.47;;;9.30;99.90;;;;;;7339183;32;20152;-61
2022/06/21 03:23:56;;;;;;;9.98;4.45;;;9.40;99.90;;;;;;7337367;32;20537;-60
2022/06/21 03:28:01;;;;;;;8.82;4.10;;;9.40;99.90;;;;;;7337861;32;20158;-59
2022/06/21 03:32:03;;;;;;;8.27;4.32;;;9.50;99.90;;;;;;7339074;32;20099;-59
2022/06/21 03:36:09;;;;;;;7.22;4.30;;;9.50;99.90;;;;;;7336715;32;20276;-60
2022/06/21 03:45:00;;;;;;;6.22;3.95;;;9.30;99.90;;;;;;7306923;32;20147;-61
2022/06/21 03:49:09;;;;;;;7.93;4.12;;;9.30;99.90;;;;;;7324507;32;21439;-59
2022/06/21 03:53:25;;;;;;;6.55;4.18;;;9.20;99.90;;;;;;7336294;32;20206;-60
2022/06/21 03:57:33;;;;;;;4.68;3.95;;;9.20;99.90;;;;;;7340231;32;20423;-60
2022/06/21 04:01:44;;;;;;;8.93;4.10;;;9.20;99.90;;;;;;7340203;32;20092;-60
2022/06/21 04:05:54;;;;;;;9.57;4.18;;;9.30;99.90;;;;;;7341071;32;20302;-61
2022/06/21 04:10:16;;;;;;;5.47;4.12;;;9.20;99.90;;;;;;7340937;32;20104;-60
2022/06/21 04:14:34;;;;;;;8.30;4.07;;;9.10;99.90;;;;;;7345795;32;20323;-59
2022/06/21 04:18:46;;;;;;;9.27;4.25;;;9.20;99.90;;;;;;7346772;32;20194;-60
2022/06/21 04:22:54;;;;;;;6.97;4.43;;;9.20;99.90;;;;;;7342649;32;20213;-60
2022/06/21 04:27:01;;;;;;;;;;;9.40;99.90;;;;;;7345973;32;20100;-60
2022/06/21 04:31:02;;;;;;;6.82;3.47;;;9.50;99.90;;;;;;7338255;32;20010;-60
2022/06/21 04:35:25;;;;;;;4.07;3.35;;;9.60;99.90;;;;;;7342690;32;20183;-60
2022/06/21 04:39:45;;;;;;;4.37;2.78;;;9.80;99.90;;;;;;7337486;32;20118;-59
2022/06/21 04:43:54;;;;;;;7.32;3.53;;;10.10;99.90;;;;;;7340246;32;20214;-59
2022/06/21 04:48:14;;;;;;;10.48;3.75;;;10.50;99.90;;;;;;7338547;32;20605;-63
2022/06/21 04:52:24;;;;;;;6.82;3.22;;;11.00;99.90;;;;;;7344023;32;20122;-63
2022/06/21 04:56:54;;;;;;;4.80;3.47;;;11.40;99.90;;;;;;7340403;32;20513;-64
2022/06/21 05:00:58;;;;;;;7.20;2.80;;;11.90;99.90;;;;;;7341773;32;20111;-64
2022/06/21 05:04:59;;;;;;;3.65;2.40;;;12.60;99.90;;;;;;7344660;32;20100;-64
2022/06/21 05:09:01;;;;;;;5.25;2.40;;;13.20;99.90;;;;;;7334789;32;20194;-63
2022/06/21 05:13:34;;;;;;;8.73;2.67;;;13.70;99.90;;;;;;7337697;32;20194;-63
2022/06/21 05:17:39;;;;;;;8.38;2.33;;;14.40;99.90;;;;;;7329520;32;20281;-64
2022/06/21 05:21:49;;;;;;;8.48;2.87;;;14.90;99.90;;;;;;7328618;32;20182;-63
2022/06/21 05:25:52;;;;;;;8.10;2.42;;;15.40;99.90;;;;;;7332229;32;20504;-63
2022/06/21 05:30:03;;;;;;;7.32;4.03;;;15.80;99.90;;;;;;7343836;32;20474;-63
2022/06/21 05:34:14;;;;;;;7.87;1.90;;;16.40;99.90;;;;;;7339009;32;20687;-64
2022/06/21 05:38:25;;;;;;;5.62;2.08;;;15.50;99.90;;;;;;7337466;32;20244;-66
2022/06/21 05:42:28;;;;;;;8.57;2.45;;;16.00;99.90;;;;;;7340302;32;20306;-67
2022/06/21 05:46:36;;;;;;;7.03;1.83;;;16.40;99.90;;;;;;7345496;32;20242;-66
2022/06/21 05:50:38;;;;;;;6.75;1.90;;;16.50;99.90;;;;;;7342958;32;20715;-66
2022/06/21 05:54:52;;;;;;;6.80;1.62;;;16.30;99.90;;;;;;7345421;32;20482;-67
2022/06/21 05:58:58;;;;;;;8.10;1.87;;;17.30;99.90;;;;;;7342718;32;20127;-65
2022/06/21 06:03:24;;;;;;;6.40;2.35;;;18.10;99.90;;;;;;7342044;32;20126;-64
2022/06/21 06:07:32;;;;;;;7.20;2.10;;;17.20;99.90;;;;;;7335630;32;20156;-65
2022/06/21 06:12:00;;;;;;;7.75;1.95;;;16.80;99.90;;;;;;7333870;32;20122;-65
2022/06/21 06:16:09;;;;;;;9.13;2.10;;;18.30;99.90;;;;;;7323508;32;20938;-65
2022/06/21 06:20:32;;;;;;;7.35;1.58;;;18.40;99.90;;;;;;7338626;32;20103;-65
2022/06/21 06:24:41;;;;;;;5.62;1.87;;;19.90;99.90;;;;;;7340295;32;20103;-64
2022/06/21 06:29:01;;;;;;;4.78;1.87;;;19.80;99.90;;;;;;7337173;32;20095;-65
2022/06/21 06:33:18;;;;;;;6.45;2.10;;;21.00;99.90;;;;;;7346386;32;20125;-62
2022/06/21 06:37:33;;;;;;;6.40;1.67;;;19.50;99.90;;;;;;7343852;32;20121;-64
2022/06/21 06:41:53;;;;;;;6.28;1.83;;;21.10;99.90;;;;;;7344002;32;20134;-63
2022/06/21 06:45:58;;;;;;;5.47;1.85;;;21.70;99.90;;;;;;7352093;32;20121;-63
2022/06/21 06:50:07;;;;;;;6.28;2.28;;;22.10;99.90;;;;;;7346956;32;20185;-63
2022/06/21 06:54:30;;;;;;;7.70;2.20;;;22.30;99.90;;;;;;7344491;32;20103;-64
2022/06/21 06:58:52;;;;;;;8.35;2.25;;;22.20;99.90;;;;;;7345968;32;20257;-64
2022/06/21 07:03:17;;;;;;;5.75;2.30;;;22.40;99.90;;;;;;7340301;32;20155;-64
2022/06/21 07:07:27;;;;;;;5.68;2.12;;;22.60;99.90;;;;;;7340727;32;20191;-65
2022/06/21 07:11:50;;;;;;;7.15;2.67;;;22.70;99.90;;;;;;7339878;32;20103;-63
2022/06/21 07:15:55;;;;;;;8.35;2.62;;;22.80;99.90;;;;;;7333130;32;20129;-63
2022/06/21 07:19:57;;;;;;;6.37;2.65;;;22.50;99.90;;;;;;7337541;32;20320;-64
2022/06/21 07:23:59;;;;;;;6.47;2.58;;;22.60;98.70;;;;;;7341533;32;20479;-65
2022/06/21 07:28:11;;;;;;;7.47;2.40;;;22.30;99.50;;;;;;7338097;32;20526;-67
2022/06/21 07:32:18;;;;;;;6.25;2.58;;;22.50;99.90;;;;;;7327946;32;20104;-63
2022/06/21 07:36:27;;;;;;;8.07;2.58;;;21.90;98.90;;;;;;7338102;32;20168;-64
2022/06/21 07:40:41;;;;;;;7.40;1.77;;;22.50;99.90;;;;;;7332712;32;20190;-65
2022/06/21 07:45:03;;;;;;;3.45;1.67;;;22.20;98.10;;;;;;7332013;32;20226;-64
2022/06/21 07:49:18;;;;;;;5.07;1.70;;;20.10;99.90;;;;;;7332152;32;20100;-64
2022/06/21 07:53:32;;;;;;;4.43;1.40;;;20.10;99.90;;;;;;7336116;32;20107;-64
2022/06/21 07:57:40;;;;;;;4.87;1.90;;;19.50;99.90;;;;;;7329523;32;20145;-64
2022/06/21 08:06:42;;;;;;;4.00;1.77;;;19.20;99.90;;;;;;7337915;32;20104;-65
2022/06/21 08:10:50;;;;;;;7.32;2.17;;;20.00;99.90;;;;;;7338327;32;20099;-64
2022/06/21 08:15:00;;;;;;;5.50;1.65;;;20.20;99.90;;;;;;7337534;32;20095;-64
2022/06/21 08:19:14;;;;;;;5.10;1.70;;;19.70;99.90;;;;;;7338646;32;20134;-64
2022/06/21 08:23:21;;;;;;;4.15;1.50;;;20.30;99.90;;;;;;7342790;32;20269;-64
2022/06/21 08:27:45;;;;;;;4.30;1.35;;;20.70;99.90;;;;;;7339636;32;20443;-64
2022/06/21 08:31:55;;;;;;;4.20;1.58;;;21.40;99.90;;;;;;7339677;32;20237;-66
2022/06/21 08:36:01;;;;;;;4.50;1.62;;;22.30;99.90;;;;;;7333494;32;20295;-65
2022/06/21 08:40:29;;;;;;;3.23;1.10;;;22.30;95.80;;;;;;7339408;32;20104;-67
2022/06/21 08:44:40;;;;;;;;;;;22.70;98.40;;;;;;7338566;32;20320;-65
2022/06/21 08:48:57;;;;;;;3.83;1.83;;;23.10;95.50;;;;;;7341203;32;20109;-64
2022/06/21 08:53:29;;;;;;;3.78;1.40;;;22.90;93.70;;;;;;7336847;32;20126;-66
2022/06/21 08:57:58;;;;;;;5.43;1.27;;;22.50;95.30;;;;;;7341644;32;20453;-63
2022/06/21 09:02:08;;;;;;;7.32;2.42;;;22.80;96.50;;;;;;7339244;32;20151;-63
2022/06/21 09:06:36;;;;;;;5.25;1.40;;;23.30;93.60;;;;;;7340709;32;20103;-64
2022/06/21 09:11:02;;;;;;;3.67;1.20;;;22.60;92.30;;;;;;7336601;32;20590;-64
2022/06/21 09:15:43;;;;;;;4.68;1.62;;;23.70;97.00;;;;;;7338552;32;20203;-65
2022/06/21 09:19:54;;;;;;;5.43;1.98;;;22.30;92.60;;;;;;7343591;32;20490;-64
2022/06/21 09:24:20;;;;;;;4.45;1.70;;;21.80;92.40;;;;;;7339428;32;20198;-64
2022/06/21 09:28:41;;;;;;;4.85;1.58;;;22.10;95.40;;;;;;7339531;32;20107;-64
2022/06/21 09:32:59;;;;;;;4.03;1.98;;;21.40;94.10;;;;;;7335764;32;20108;-64
2022/06/21 09:37:12;;;;;;;4.50;1.42;;;22.10;96.40;;;;;;7339993;32;20486;-65
2022/06/21 09:41:16;;;;;;;8.82;1.70;;;22.80;94.40;;;;;;7336011;32;20099;-64
2022/06/21 09:45:40;;;;;;;4.32;1.45;;;21.50;92.60;;;;;;7341675;32;20576;-68
2022/06/21 09:50:09;;;;;;;6.05;1.70;;;20.90;94.40;;;;;;7340414;32;20127;-67
2022/06/21 09:54:25;;;;;;;5.53;1.55;;;20.70;96.70;;;;;;7338262;32;20459;-64
2022/06/21 09:58:52;;;;;;;4.07;1.80;;;20.60;97.20;;;;;;7339862;32;20882;-65
2022/06/21 10:03:15;;;;;;;6.53;1.60;;;21.20;97.90;;;;;;7333442;32;20439;-63
2022/06/21 10:07:39;;;;;;;5.18;1.70;;;22.40;98.10;;;;;;7339790;32;20210;-63
2022/06/21 10:12:01;;;;;;;;;;;21.90;98.00;;;;;;7339694;32;20405;-64
2022/06/21 10:16:08;;;;;;;3.47;1.43;;;22.10;97.20;;;;;;7336443;32;20513;-62
2022/06/21 10:20:24;;;;;;;2.75;1.45;;;22.10;96.10;;;;;;7339083;32;20159;-64
2022/06/21 10:24:38;;;;;;;4.05;1.70;;;21.50;96.80;;;;;;7344339;32;20137;-62
2022/06/21 10:29:16;;;;;;;4.78;1.55;;;21.30;96.80;;;;;;7334057;32;20112;-63
2022/06/21 10:33:37;;;;;;;3.40;1.62;;;21.30;98.00;;;;;;7339721;32;20100;-64
2022/06/21 10:37:59;;;;;;;2.72;1.50;;;20.80;97.10;;;;;;7340281;32;21347;-65
2022/06/21 10:46:50;;;;;;;7.65;2.25;;;20.90;97.80;;;;;;7342694;32;20112;-64
2022/06/21 10:51:17;;;;;;;6.28;1.70;;;20.60;98.10;;;;;;7340392;32;20130;-66
2022/06/21 10:55:45;;;;;;;5.70;1.70;;;19.90;99.70;;;;;;7332783;32;20221;-67
2022/06/21 11:04:57;;;;;;;5.22;1.50;;;20.40;99.90;;;;;;7336349;32;20314;-60
2022/06/21 11:08:59;;;;;;;4.10;2.08;;;20.50;99.90;;;;;;7337497;32;20182;-60
2022/06/21 11:13:04;;;;;;;5.40;1.90;;;20.40;99.90;;;;;;7339431;32;20139;-64
2022/06/21 11:17:18;;;;;;;4.85;2.10;;;20.30;99.90;;;;;;7338527;32;20122;-65
2022/06/21 11:21:23;;;;;;;5.57;1.70;;;20.40;99.80;;;;;;7337635;32;20198;-58
2022/06/21 11:25:40;;;;;;;6.25;1.62;;;20.50;99.90;;;;;;7338210;32;20239;-57
2022/06/21 11:30:09;;;;;;;2.97;1.30;;;20.80;99.90;;;;;;7340802;32;21113;-57
2022/06/21 11:34:20;;;;;;;4.00;1.65;;;20.40;99.90;;;;;;7337525;32;20304;-57
2022/06/21 11:39:00;;;;;;;4.10;1.45;;;20.50;99.90;;;;;;7332640;32;20562;-57
2022/06/21 11:43:10;;;;;;;5.05;1.58;;;20.40;99.90;;;;;;7342363;32;20111;-59
2022/06/21 11:47:34;;;;;;;3.78;2.03;;;20.30;99.90;;;;;;7332981;32;20500;-66
2022/06/21 11:51:38;;;;;;;5.45;1.67;;;20.30;99.90;;;;;;7340525;32;20163;-65
2022/06/21 11:55:49;;;;;;;3.87;1.90;;;20.20;99.90;;;;;;7339498;32;20512;-65
2022/06/21 11:59:59;;;;;;;6.20;1.58;;;20.30;99.90;;;;;;7340180;32;20265;-66
2022/06/21 12:04:24;;;;;;;5.82;1.80;;;20.40;99.90;;;;;;7337005;32;20165;-58
2022/06/21 12:08:36;;;;;;;8.48;4.28;;;20.40;99.90;;;;;;7335857;32;20134;-57
2022/06/21 12:12:56;;;;;;;5.62;2.22;;;20.90;99.90;;;;;;7337519;32;20240;-58
2022/06/21 12:17:23;;;;;;;4.10;1.80;;;21.20;99.90;;;;;;7337604;32;20642;-58
2022/06/21 12:21:31;;;;;;;3.62;1.50;;;21.50;99.90;;;;;;7335929;32;20783;-59
2022/06/21 12:25:33;;;;;;;2.33;1.50;;;21.70;99.90;;;;;;7340295;32;20218;-58
2022/06/21 12:29:34;;;;;;;4.43;1.80;;;22.30;98.50;;;;;;7339406;32;20546;-58
2022/06/21 12:33:38;;;;;;;4.00;1.67;;;22.60;96.60;;;;;;7341745;32;20134;-59
2022/06/21 12:37:51;;;;;;;4.80;1.33;;;23.00;97.80;;;;;;7345794;32;20104;-57
2022/06/21 12:41:58;;;;;;;6.18;1.70;;;23.30;96.80;;;;;;7338553;32;20107;-65
2022/06/21 12:46:19;;;;;;;7.20;1.90;;;22.80;96.70;;;;;;7338908;32;20550;-63
2022/06/21 12:50:39;;;;;;;3.97;1.80;;;22.90;98.50;;;;;;7349414;32;20253;-63
2022/06/21 12:54:56;;;;;;;3.87;1.55;;;22.90;96.80;;;;;;7340156;32;20258;-65
2022/06/21 12:59:16;;;;;;;4.32;1.45;;;22.50;97.10;;;;;;7340128;32;20246;-64
2022/06/21 13:03:30;;;;;;;5.47;1.73;;;22.40;97.20;;;;;;7343794;32;20206;-64
2022/06/21 13:07:50;;;;;;;5.28;2.90;;;22.10;96.50;;;;;;7347784;32;20130;-65
2022/06/21 13:12:14;;;;;;;6.00;2.25;;;22.10;97.00;;;;;;7354790;32;20761;-63
2022/06/21 13:16:40;;;;;;;7.47;2.42;;;22.00;95.80;;;;;;7348927;32;20165;-64
2022/06/21 13:21:10;;;;;;;5.90;2.10;;;21.80;95.60;;;;;;7346201;32;20133;-64
2022/06/21 13:25:26;;;;;;;5.35;2.00;;;21.50;95.80;;;;;;7342171;32;20426;-65
2022/06/21 13:29:40;;;;;;;4.45;2.00;;;21.70;96.50;;;;;;7337665;32;20630;-64
2022/06/21 13:33:58;;;;;;;5.00;1.60;;;22.50;97.20;;;;;;7340267;32;20126;-65
2022/06/21 13:38:04;;;;;;;6.12;3.60;;;22.90;98.10;;;;;;7343296;32;20660;-65
2022/06/21 13:42:45;;;;;;;5.47;2.10;;;23.10;94.20;;;;;;7343745;32;20111;-65
2022/06/21 13:46:54;;;;;;;4.37;1.70;;;23.00;95.70;;;;;;7320051;32;21529;-66
2022/06/21 13:51:26;;;;;;;3.42;2.05;;;23.10;95.20;;;;;;7344368;32;20191;-60
2022/06/21 13:55:53;;;;;;;6.32;2.03;;;22.50;96.50;;;;;;7337395;32;20312;-67
2022/06/21 13:59:55;;;;;;;7.10;2.00;;;22.60;97.20;;;;;;7336914;32;20482;-59
2022/06/21 14:04:05;;;;;;;4.00;2.00;;;23.00;95.30;;;;;;7336233;32;20210;-60
2022/06/21 14:08:37;;;;;;;6.28;2.15;;;22.80;96.80;;;;;;7338701;32;20556;-59
2022/06/21 14:13:05;;;;;;;6.40;1.90;;;22.90;96.00;;;;;;7340614;32;20216;-59
2022/06/21 14:17:28;;;;;;;4.37;1.73;;;23.10;94.20;;;;;;7342104;32;20109;-58
2022/06/21 14:21:42;;;;;;;4.10;1.70;;;23.00;96.70;;;;;;7336911;32;20233;-59
2022/06/21 14:25:59;;;;;;;7.15;2.37;;;23.00;95.40;;;;;;7341050;32;20245;-58
2022/06/21 14:30:14;;;;;;;3.70;1.83;;;22.90;93.60;;;;;;7336156;32;20140;-59
2022/06/21 14:34:53;;;;;;;6.28;2.00;;;22.50;96.00;;;;;;7337071;32;20492;-66
2022/06/21 14:39:10;;;;;;;3.80;1.85;;;22.50;94.50;;;;;;7337822;32;20095;-66
2022/06/21 14:43:25;;;;;;;;;;;23.00;95.80;;;;;;7344410;32;20178;-65
2022/06/21 14:47:42;;;;;;;6.65;1.73;;;23.40;96.20;;;;;;7335500;32;20128;-67
2022/06/21 14:52:03;;;;;;;6.00;2.40;;;23.10;94.20;;;;;;7340583;32;20241;-65
2022/06/21 14:56:15;;;;;;;3.25;1.73;;;22.60;93.90;;;;;;7336231;32;20121;-66
2022/06/21 15:00:50;;;;;;;4.10;1.95;;;22.80;94.40;;;;;;7335152;32;20271;-65
2022/06/21 15:05:01;;;;;;;3.75;2.10;;;22.80;95.70;;;;;;7335339;32;20503;-66
2022/06/21 15:09:20;;;;;;;5.30;1.90;;;22.90;95.60;;;;;;7330003;32;20116;-65
2022/06/21 15:13:34;;;;;;;5.00;1.50;;;23.30;95.10;;;;;;7343292;32;20128;-65
2022/06/21 15:17:47;;;;;;;7.22;4.32;;;23.60;93.80;;;;;;7338702;32;20099;-66
2022/06/21 15:21:48;;;;;;;4.00;1.75;;;23.80;93.50;;;;;;7334128;32;20620;-65
2022/06/21 15:26:00;;;;;;;4.20;1.83;;;23.80;93.90;;;;;;7327091;32;20489;-67
2022/06/21 15:30:04;;;;;;;3.40;1.62;;;23.70;91.50;;;;;;7336661;32;20180;-67
2022/06/21 15:34:43;;;;;;;6.00;1.77;;;23.50;92.70;;;;;;7337221;32;20236;-65
2022/06/21 15:38:53;;;;;;;4.12;1.40;;;23.40;93.70;;;;;;7336020;32;20134;-67
2022/06/21 15:43:33;;;;;;;7.57;1.95;;;23.10;94.40;;;;;;7340921;32;20874;-65
2022/06/21 15:52:38;;;;;;;3.95;1.73;;;22.60;92.70;;;;;;7344094;32;20427;-65
2022/06/21 15:56:56;;;;;;;5.28;1.62;;;22.10;94.40;;;;;;7342545;32;20356;-65
2022/06/21 16:01:21;;;;;;;4.22;1.73;;;22.50;94.60;;;;;;7341735;32;20126;-65
2022/06/21 16:05:40;;;;;;;4.43;2.45;;;22.50;93.40;;;;;;7344684;32;20099;-65
2022/06/21 16:09:45;;;;;;;3.22;1.67;;;22.50;93.80;;;;;;7346395;32;20235;-66
2022/06/21 16:13:56;;;;;;;18.05;13.88;;;22.60;94.10;;;;;;7347696;32;20831;-65
2022/06/21 16:18:05;;;;;;;4.53;1.80;;;22.60;94.10;;;;;;7349228;32;21217;-65
2022/06/21 16:22:07;;;;;;;5.53;2.10;;;22.10;94.60;;;;;;7352051;32;20127;-66
2022/06/21 16:26:21;;;;;;;4.25;1.87;;;21.60;94.20;;;;;;7346790;32;20591;-65
2022/06/21 16:30:29;;;;;;;4.37;1.77;;;21.60;95.60;;;;;;7346139;32;20107;-65
2022/06/21 16:34:46;;;;;;;7.12;2.92;;;21.50;96.20;;;;;;7343636;32;20144;-65
2022/06/21 16:43:48;;;;;;;3.03;1.37;;;21.80;96.90;;;;;;7348818;32;20190;-65
2022/06/21 16:48:20;;;;;;;3.12;1.40;;;21.70;97.20;;;;;;7340154;32;20871;-66
2022/06/21 16:52:26;;;;;;;5.37;1.70;;;21.80;98.10;;;;;;7336949;32;20571;-68
2022/06/21 16:56:44;;;;;;;5.65;1.52;;;21.60;98.20;;;;;;7339247;32;20277;-68
2022/06/21 17:01:02;;;;;;;2.27;1.03;;;21.60;97.30;;;;;;7343942;32;20125;-70
2022/06/21 17:05:11;;;;;;;5.05;1.45;;;21.70;97.50;;;;;;7345172;32;20099;-67
2022/06/21 17:09:27;;;;;;;4.03;1.42;;;21.60;98.20;;;;;;7345629;32;20138;-67
2022/06/21 17:13:35;;;;;;;5.05;2.12;;;21.60;99.00;;;;;;7345575;32;20199;-67
2022/06/21 17:17:49;;;;;;;5.05;1.40;;;21.60;98.60;;;;;;7330687;32;20142;-67
2022/06/21 17:22:05;;;;;;;8.10;4.97;;;21.60;98.40;;;;;;7345257;32;21023;-64
2022/06/21 17:26:25;;;;;;;5.05;2.15;;;21.60;98.60;;;;;;7343699;32;20114;-67
2022/06/21 17:30:36;;;;;;;5.05;1.60;;;21.60;98.30;;;;;;7342817;32;20186;-67
2022/06/21 17:34:52;;;;;;;5.07;1.67;;;21.50;98.60;;;;;;7344279;32;20129;-68
2022/06/21 17:39:13;;;;;;;3.85;1.60;;;21.30;99.00;;;;;;7347071;32;20138;-63
2022/06/21 17:43:25;;;;;;;5.65;1.90;;;21.10;99.90;;;;;;7350329;32;20546;-63
2022/06/21 17:47:35;;;;;;;3.28;1.37;;;21.10;99.80;;;;;;7349583;32;20116;-64
2022/06/21 17:51:42;;;;;;;6.90;1.80;;;21.10;99.90;;;;;;7346435;32;20669;-65
2022/06/21 17:55:54;;;;;;;3.72;1.50;;;20.90;99.90;;;;;;7331753;32;20141;-67
2022/06/21 17:59:55;;;;;;;2.75;1.35;;;21.00;99.90;;;;;;7342554;32;20210;-68
2022/06/21 18:04:12;;;;;;;3.95;1.70;;;20.90;99.90;;;;;;7341926;32;20133;-69
2022/06/21 18:08:23;;;;;;;6.67;2.00;;;20.70;99.90;;;;;;7334898;32;20111;-62
2022/06/21 18:17:50;;;;;;;5.30;1.75;;;20.40;99.90;;;;;;7338525;32;20107;-70
2022/06/21 18:22:08;;;;;;;6.65;3.90;;;20.40;99.90;;;;;;7339925;32;20123;-70
2022/06/21 18:31:01;;;;;;;4.47;1.98;;;20.30;99.90;;;;;;7343119;32;20133;-69
2022/06/21 18:35:04;;;;;;;6.13;1.70;;;20.20;99.90;;;;;;7343758;32;20108;-70
2022/06/21 18:39:14;;;;;;;2.40;1.48;;;20.10;99.90;;;;;;7347119;32;20290;-69
2022/06/21 18:43:29;;;;;;;7.07;2.10;;;20.00;99.90;;;;;;7345386;32;20749;-71
2022/06/21 18:48:03;;;;;;;4.53;1.80;;;19.90;99.90;;;;;;7346446;32;20242;-69
2022/06/21 18:52:34;;;;;;;4.22;2.00;;;19.80;99.90;;;;;;7337673;32;20760;-70
2022/06/21 18:57:04;;;;;;;3.80;1.80;;;19.70;99.90;;;;;;7331277;32;20115;-69
2022/06/21 19:01:31;;;;;;;5.87;1.77;;;19.70;99.90;;;;;;7342198;32;20118;-68
2022/06/21 19:11:07;;;;;;;4.95;2.25;;;19.60;99.90;;;;;;7338812;32;20198;-69
2022/06/21 19:15:40;;;;;;;8.02;2.15;;;19.50;99.90;;;;;;7345720;32;20900;-69
2022/06/21 19:24:48;;;;;;;4.72;1.92;;;19.20;99.90;;;;;;7336607;32;20184;-69
2022/06/21 19:29:08;;;;;;;4.62;2.05;;;19.00;99.90;;;;;;7343441;32;20198;-69
2022/06/21 19:33:36;;;;;;;5.40;2.17;;;18.90;99.90;;;;;;7345906;32;20284;-67
2022/06/21 19:38:05;;;;;;;3.65;2.40;;;18.80;99.90;;;;;;7337700;32;20129;-69
2022/06/21 19:42:22;;;;;;;4.03;2.20;;;18.60;99.90;;;;;;7346793;32;20111;-69
2022/06/21 19:46:34;;;;;;;4.47;1.98;;;18.50;99.90;;;;;;7342603;32;20161;-68
2022/06/21 19:50:39;;;;;;;2.90;1.70;;;18.50;99.90;;;;;;7341364;32;20283;-62
2022/06/21 19:54:51;;;;;;;4.03;2.00;;;18.50;99.90;;;;;;7344269;32;20115;-69
2022/06/21 19:58:58;;;;;;;3.95;2.10;;;18.50;99.90;;;;;;7342484;32;20226;-69
2022/06/21 20:03:01;;;;;;;3.72;1.75;;;18.50;99.90;;;;;;7338610;32;20590;-69
2022/06/21 20:07:05;;;;;;;5.18;1.95;;;18.50;99.90;;;;;;7337450;32;20140;-66
2022/06/21 20:11:11;;;;;;;6.32;2.17;;;18.40;99.90;;;;;;7343847;32;20111;-64
2022/06/21 20:15:37;;;;;;;6.32;2.00;;;18.40;99.90;;;;;;7342290;32;20133;-66
2022/06/21 20:24:19;;;;;;;3.78;2.15;;;18.10;99.90;;;;;;7353698;32;20180;-66
2022/06/21 20:28:46;;;;;;;5.43;1.93;;;18.00;99.90;;;;;;7340012;32;20401;-66
2022/06/21 20:33:03;;;;;;;5.32;2.00;;;17.90;99.90;;;;;;7338465;32;20111;-66
2022/06/21 20:37:10;;;;;;;4.87;1.80;;;17.80;99.90;;;;;;7332398;32;20103;-65
2022/06/21 20:41:15;;;;;;;9.25;2.10;;;17.70;99.90;;;;;;7340269;32;20462;-62
2022/06/21 20:45:22;;;;;;;7.65;2.62;;;17.60;99.90;;;;;;7339121;32;20524;-65
2022/06/21 20:49:24;;;;;;;4.97;2.30;;;17.40;99.90;;;;;;7339615;32;20320;-65
2022/06/21 20:53:27;;;;;;;7.07;2.05;;;17.30;99.90;;;;;;7337553;32;20311;-66
2022/06/21 20:58:09;;;;;;;5.10;2.00;;;17.10;99.90;;;;;;7344316;32;20343;-63
2022/06/21 21:02:34;;;;;;;5.78;2.00;;;16.90;99.90;;;;;;7268367;32;20159;-65
2022/06/21 21:06:42;;;;;;;6.85;2.05;;;16.70;99.90;;;;;;7300960;32;20240;-65
2022/06/21 21:10:51;;;;;;;4.22;2.03;;;16.60;99.90;;;;;;7340466;32;20869;-64
2022/06/21 21:14:59;;;;;;;4.90;2.08;;;16.40;99.90;;;;;;7340220;32;20130;-65
2022/06/21 21:19:18;;;;;;;5.68;2.10;;;16.30;99.90;;;;;;7344128;32;20234;-65
2022/06/21 21:23:44;;;;;;;7.12;1.98;;;16.10;99.90;;;;;;7350316;32;20099;-65
2022/06/21 21:27:50;;;;;;;6.62;2.30;;;15.90;99.90;;;;;;7336119;32;20195;-64
2022/06/21 21:31:59;;;;;;;6.68;2.05;;;15.80;99.90;;;;;;7339250;32;20123;-62
2022/06/21 21:36:39;;;;;;;2.85;2.05;;;15.60;99.90;;;;;;7348792;32;20516;-62
2022/06/21 21:45:15;;;;;;;5.95;1.85;;;15.30;99.90;;;;;;7345434;32;20648;-61
2022/06/21 21:49:22;;;;;;;5.87;1.90;;;15.20;99.90;;;;;;7344334;32;20231;-62
2022/06/21 21:53:26;;;;;;;5.28;1.80;;;15.10;99.90;;;;;;7345540;32;20139;-60
2022/06/21 21:57:32;;;;;;;4.68;2.03;;;15.00;99.90;;;;;;7346055;32;20104;-61
2022/06/21 22:01:38;;;;;;;6.83;2.00;;;14.80;99.90;;;;;;7340948;32;20459;-60
2022/06/21 22:06:05;;;;;;;5.25;2.37;;;14.70;99.90;;;;;;7341211;32;20209;-61
2022/06/21 22:10:34;;;;;;;12.63;2.50;;;14.60;99.90;;;;;;7340812;32;20350;-62
2022/06/21 22:14:49;;;;;;;8.05;2.55;;;14.50;99.90;;;;;;7343921;32;20134;-60
2022/06/21 22:18:59;;;;;;;5.55;2.12;;;14.40;99.90;;;;;;7338894;32;20326;-59
2022/06/21 22:23:13;;;;;;;4.37;2.10;;;14.30;99.90;;;;;;7339094;32;20291;-61
2022/06/21 22:27:21;;;;;;;3.87;2.20;;;14.30;99.90;;;;;;7342024;32;20249;-60
2022/06/21 22:31:35;;;;;;;8.82;2.35;;;14.20;99.90;;;;;;7339747;32;20780;-60
2022/06/21 22:35:37;;;;;;;4.57;2.42;;;14.10;99.90;;;;;;7337033;32;20120;-60
2022/06/21 22:39:44;;;;;;;5.30;2.08;;;14.00;99.90;;;;;;7337673;32;20546;-61
2022/06/21 22:43:51;;;;;;;4.30;1.98;;;14.00;99.90;;;;;;7342213;32;20115;-60
2022/06/21 22:47:55;;;;;;;5.85;2.62;;;13.90;99.90;;;;;;7338674;32;20138;-60
2022/06/21 22:51:58;;;;;;;4.37;2.10;;;13.80;99.90;;;;;;7343786;32;20161;-60
2022/06/21 22:56:03;;;;;;;6.10;2.12;;;13.70;99.90;;;;;;7339239;32;20774;-60
2022/06/21 23:00:18;;;;;;;4.30;2.12;;;13.60;99.90;;;;;;7340818;32;20115;-60
2022/06/21 23:04:36;;;;;;;5.55;2.15;;;13.60;99.90;;;;;;7346161;32;20279;-61